Time;durP1;ratioP1;P1;durP2;ratioP2;P2;SDS_P1;SDS_P2;PMS_P1;PMS_P2;Temp;Humidity;BMP_temperature;BMP_pressure;BME280_temperature;BME280_humidity;BME280_pressure;Samples;Min_cycle;Max_cycle;Signal;HPM_P1;HPM_P2
2021/03/12 00:01:51;;;;;;;15.03;9.40;;;;;;;;;;6381897;22;20404;-95
2021/03/12 00:04:17;;;;;;;13.63;9.75;;;;;;;;;;6383505;22;20406;-94
2021/03/12 00:06:44;;;;;;;15.52;10.63;;;;;;;;;;6384599;22;20184;-95
2021/03/12 00:09:10;;;;;;;11.32;9.10;;;;;;;;;;6381290;22;20176;-95
2021/03/12 00:11:36;;;;;;;14.15;10.15;;;;;;;;;;6381484;22;20176;-95
2021/03/12 00:14:02;;;;;;;20.98;13.23;;;;;;;;;;6380537;22;20184;-95
2021/03/12 00:16:28;;;;;;;16.50;11.23;;;;;;;;;;6390182;22;20178;-94
2021/03/12 00:18:54;;;;;;;16.73;10.88;;;;;;;;;;6383493;22;20176;-95
2021/03/12 00:21:20;;;;;;;16.52;12.52;;;;;;;;;;6381270;22;20178;-95
2021/03/12 00:23:47;;;;;;;23.27;15.82;;;;;;;;;;6380180;22;20221;-94
2021/03/12 00:26:13;;;;;;;29.75;15.68;;;;;;;;;;6380272;22;20229;-95
2021/03/12 00:28:39;;;;;;;26.60;16.50;;;;;;;;;;6380660;22;20176;-95
2021/03/12 00:31:06;;;;;;;26.83;17.38;;;;;;;;;;6387460;22;20386;-95
2021/03/12 00:33:32;;;;;;;23.35;14.82;;;;;;;;;;6382323;22;20180;-96
2021/03/12 00:35:59;;;;;;;19.63;13.60;;;;;;;;;;6383447;22;20183;-95
2021/03/12 00:38:25;;;;;;;17.52;12.23;;;;;;;;;;6391016;22;20168;-95
2021/03/12 00:40:53;;;;;;;17.35;12.32;;;;;;;;;;6382453;22;20210;-96
2021/03/12 00:43:20;;;;;;;17.58;11.90;;;;;;;;;;6381135;22;20192;-95
2021/03/12 00:45:47;;;;;;;18.45;11.23;;;;;;;;;;6380765;22;20176;-95
2021/03/12 00:48:13;;;;;;;17.23;11.48;;;;;;;;;;6381921;22;20184;-95
2021/03/12 00:50:40;;;;;;;17.60;12.27;;;;;;;;;;6379991;22;20184;-94
2021/03/12 00:53:06;;;;;;;17.88;12.57;;;;;;;;;;6381974;22;20229;-95
2021/03/12 00:55:32;;;;;;;18.77;12.60;;;;;;;;;;6380430;22;20187;-95
2021/03/12 00:57:59;;;;;;;17.13;11.38;;;;;;;;;;6382135;22;20176;-95
2021/03/12 01:00:26;;;;;;;19.85;12.80;;;;;;;;;;6380795;22;20183;-95
2021/03/12 01:02:52;;;;;;;19.13;12.90;;;;;;;;;;6381260;22;20196;-94
2021/03/12 01:05:19;;;;;;;19.10;11.80;;;;;;;;;;6381639;22;20191;-96
2021/03/12 01:07:45;;;;;;;17.67;11.98;;;;;;;;;;6381604;22;20203;-95
2021/03/12 01:10:13;;;;;;;18.58;11.73;;;;;;;;;;6382082;22;20205;-95
2021/03/12 01:12:39;;;;;;;15.55;10.93;;;;;;;;;;6380855;22;20171;-95
2021/03/12 01:15:08;;;;;;;18.73;13.00;;;;;;;;;;6383166;22;20168;-95
2021/03/12 01:17:34;;;;;;;19.60;12.32;;;;;;;;;;6379753;22;20610;-95
2021/03/12 01:20:01;;;;;;;17.83;11.82;;;;;;;;;;6380106;22;20509;-94
2021/03/12 01:22:27;;;;;;;18.77;11.88;;;;;;;;;;6379844;22;20218;-96
2021/03/12 01:24:53;;;;;;;20.42;12.23;;;;;;;;;;6381335;22;20172;-96
2021/03/12 01:27:19;;;;;;;18.92;11.95;;;;;;;;;;6380812;22;20194;-95
2021/03/12 01:29:45;;;;;;;17.58;11.20;;;;;;;;;;6384078;22;20165;-96
2021/03/12 01:32:12;;;;;;;18.25;13.02;;;;;;;;;;6382672;22;20172;-95
2021/03/12 01:34:38;;;;;;;23.15;13.95;;;;;;;;;;6384262;22;20176;-96
2021/03/12 01:37:04;;;;;;;20.98;13.45;;;;;;;;;;6383409;22;20233;-94
2021/03/12 01:39:30;;;;;;;29.50;17.80;;;;;;;;;;6391657;22;20176;-94
2021/03/12 01:41:57;;;;;;;26.15;15.73;;;;;;;;;;6388574;22;20196;-95
2021/03/12 01:44:23;;;;;;;26.45;14.98;;;;;;;;;;6384773;22;20625;-96
2021/03/12 01:46:49;;;;;;;24.35;15.07;;;;;;;;;;6384364;22;20180;-95
2021/03/12 01:49:16;;;;;;;29.08;17.55;;;;;;;;;;6383814;22;20225;-95
2021/03/12 01:51:42;;;;;;;28.92;17.25;;;;;;;;;;6384183;22;20180;-96
2021/03/12 01:54:08;;;;;;;29.63;17.15;;;;;;;;;;6382314;22;20672;-95
2021/03/12 01:56:34;;;;;;;30.92;17.88;;;;;;;;;;6384124;22;20176;-96
2021/03/12 01:59:00;;;;;;;33.10;17.30;;;;;;;;;;6381955;22;20179;-95
2021/03/12 02:01:26;;;;;;;24.17;16.25;;;;;;;;;;6389966;22;20172;-94
2021/03/12 02:03:52;;;;;;;30.77;18.17;;;;;;;;;;6387816;22;20196;-95
2021/03/12 02:06:19;;;;;;;23.38;15.95;;;;;;;;;;6385834;22;20176;-95
2021/03/12 02:08:45;;;;;;;20.58;15.77;;;;;;;;;;6382886;22;20172;-94
2021/03/12 02:11:12;;;;;;;23.00;15.27;;;;;;;;;;6390303;22;20172;-95
2021/03/12 02:13:42;;;;;;;24.25;16.00;;;;;;;;;;6383894;22;20172;-95
2021/03/12 02:16:12;;;;;;;26.52;16.92;;;;;;;;;;6384242;22;20212;-96
2021/03/12 02:18:40;;;;;;;21.40;12.98;;;;;;;;;;6388230;22;20179;-95
2021/03/12 02:21:09;;;;;;;22.38;13.35;;;;;;;;;;6386371;22;20205;-95
2021/03/12 02:23:39;;;;;;;17.50;11.55;;;;;;;;;;6381899;22;20196;-95
2021/03/12 02:26:09;;;;;;;17.20;11.25;;;;;;;;;;6385145;22;20523;-95
2021/03/12 02:28:37;;;;;;;20.70;12.13;;;;;;;;;;6388702;22;20173;-96
2021/03/12 02:31:08;;;;;;;20.67;13.80;;;;;;;;;;6393692;22;20168;-96
2021/03/12 02:33:35;;;;;;;20.92;13.13;;;;;;;;;;6392834;22;20224;-96
2021/03/12 02:36:05;;;;;;;18.25;13.25;;;;;;;;;;6389531;22;20180;-95
2021/03/12 02:38:36;;;;;;;19.85;12.05;;;;;;;;;;6391334;22;20163;-96
2021/03/12 02:41:07;;;;;;;19.58;12.13;;;;;;;;;;6392507;22;20175;-96
2021/03/12 02:43:33;;;;;;;18.65;13.40;;;;;;;;;;6387463;22;20199;-96
2021/03/12 02:46:06;;;;;;;22.20;13.15;;;;;;;;;;6392870;22;20172;-96
2021/03/12 02:48:34;;;;;;;21.05;13.18;;;;;;;;;;6390856;22;20174;-95
2021/03/12 02:51:02;;;;;;;18.35;11.93;;;;;;;;;;6389023;22;20183;-96
2021/03/12 02:53:31;;;;;;;15.85;10.65;;;;;;;;;;6388124;22;20205;-96
2021/03/12 02:55:57;;;;;;;17.05;11.18;;;;;;;;;;6383260;22;20168;-95
2021/03/12 02:58:24;;;;;;;15.90;10.65;;;;;;;;;;6383547;22;20192;-95
2021/03/12 03:00:53;;;;;;;17.55;11.13;;;;;;;;;;6392775;22;20190;-96
2021/03/12 03:03:29;;;;;;;19.90;12.60;;;;;;;;;;6394353;22;20196;-96
2021/03/12 03:05:55;;;;;;;18.50;11.98;;;;;;;;;;6390265;22;20166;-95
2021/03/12 03:08:22;;;;;;;22.33;11.90;;;;;;;;;;6383932;22;20227;-94
2021/03/12 03:10:48;;;;;;;19.38;12.38;;;;;;;;;;6383815;22;20644;-95
2021/03/12 03:13:14;;;;;;;18.88;11.15;;;;;;;;;;6385437;22;20178;-96
2021/03/12 03:15:41;;;;;;;20.65;12.15;;;;;;;;;;6383091;22;20205;-96
2021/03/12 03:18:07;;;;;;;18.95;12.25;;;;;;;;;;6387089;22;20172;-96
2021/03/12 03:20:35;;;;;;;19.30;12.35;;;;;;;;;;6390039;22;20173;-94
2021/03/12 03:23:01;;;;;;;23.25;14.18;;;;;;;;;;6391795;22;20199;-95
2021/03/12 03:25:28;;;;;;;21.60;14.15;;;;;;;;;;6392077;22;20612;-94
2021/03/12 03:27:54;;;;;;;23.40;13.95;;;;;;;;;;6387824;22;20173;-95
2021/03/12 03:30:20;;;;;;;19.98;14.20;;;;;;;;;;6386541;22;20172;-96
2021/03/12 03:32:47;;;;;;;21.80;13.52;;;;;;;;;;6384637;22;20169;-95
2021/03/12 03:35:13;;;;;;;18.40;13.13;;;;;;;;;;6386509;22;20202;-95
2021/03/12 03:37:41;;;;;;;22.10;13.90;;;;;;;;;;6386240;22;20176;-96
2021/03/12 03:40:09;;;;;;;17.45;12.50;;;;;;;;;;6389600;22;20168;-96
2021/03/12 03:42:36;;;;;;;19.80;12.98;;;;;;;;;;6380781;22;20247;-95
2021/03/12 03:45:05;;;;;;;17.30;12.48;;;;;;;;;;6382759;22;20831;-96
2021/03/12 03:47:32;;;;;;;21.67;13.75;;;;;;;;;;6383350;22;20201;-95
2021/03/12 03:49:59;;;;;;;21.60;12.73;;;;;;;;;;6384516;22;20180;-95
2021/03/12 03:52:27;;;;;;;18.08;11.68;;;;;;;;;;6382755;22;20176;-95
2021/03/12 03:54:55;;;;;;;14.43;10.32;;;;;;;;;;6384418;22;20396;-96
2021/03/12 03:57:21;;;;;;;19.10;12.05;;;;;;;;;;6384439;22;20200;-94
2021/03/12 03:59:50;;;;;;;17.52;11.40;;;;;;;;;;6395481;22;20166;-96
2021/03/12 04:02:17;;;;;;;17.20;11.07;;;;;;;;;;6385601;22;20172;-95
2021/03/12 04:04:46;;;;;;;19.58;11.48;;;;;;;;;;6386256;22;20254;-95
2021/03/12 04:07:13;;;;;;;18.83;12.32;;;;;;;;;;6386907;22;20176;-93
2021/03/12 04:09:39;;;;;;;18.63;11.93;;;;;;;;;;6390772;22;20176;-94
2021/03/12 04:12:07;;;;;;;18.08;12.30;;;;;;;;;;6389016;22;20194;-95
2021/03/12 04:14:34;;;;;;;19.48;11.90;;;;;;;;;;6382436;22;20179;-94
2021/03/12 04:17:00;;;;;;;21.25;11.95;;;;;;;;;;6383598;22;20168;-95
2021/03/12 04:19:26;;;;;;;18.13;12.18;;;;;;;;;;6382301;22;20168;-95
2021/03/12 04:21:53;;;;;;;15.82;10.65;;;;;;;;;;6381906;22;20180;-95
2021/03/12 04:24:19;;;;;;;16.20;10.73;;;;;;;;;;6380395;22;20196;-95
2021/03/12 04:26:46;;;;;;;15.15;10.48;;;;;;;;;;6381136;22;20192;-96
2021/03/12 04:29:13;;;;;;;14.45;10.55;;;;;;;;;;6379326;22;20226;-95
2021/03/12 04:31:39;;;;;;;22.33;13.15;;;;;;;;;;6380427;22;20727;-95
2021/03/12 04:34:08;;;;;;;19.85;12.10;;;;;;;;;;6378647;22;20198;-95
2021/03/12 04:36:34;;;;;;;23.95;14.82;;;;;;;;;;6382808;22;20174;-96
2021/03/12 04:39:00;;;;;;;28.52;16.58;;;;;;;;;;6381212;22;20186;-96
2021/03/12 04:41:27;;;;;;;23.27;16.05;;;;;;;;;;6382542;22;20210;-95
2021/03/12 04:43:53;;;;;;;27.92;16.55;;;;;;;;;;6381301;22;20199;-96
2021/03/12 04:46:20;;;;;;;29.45;17.45;;;;;;;;;;6380654;22;20176;-96
2021/03/12 04:48:47;;;;;;;25.90;16.23;;;;;;;;;;6381345;22;20180;-96
2021/03/12 04:51:13;;;;;;;27.83;18.13;;;;;;;;;;6380482;22;20179;-95
2021/03/12 04:53:39;;;;;;;28.65;17.70;;;;;;;;;;6382607;22;20380;-95
2021/03/12 04:56:06;;;;;;;28.27;17.45;;;;;;;;;;6380373;22;20168;-96
2021/03/12 04:58:32;;;;;;;26.92;17.48;;;;;;;;;;6381560;22;20172;-95
2021/03/12 05:00:58;;;;;;;27.00;16.65;;;;;;;;;;6380588;22;20172;-96
2021/03/12 05:03:26;;;;;;;26.17;16.73;;;;;;;;;;6380969;22;20195;-95
2021/03/12 05:05:52;;;;;;;24.17;16.27;;;;;;;;;;6379929;22;20172;-95
2021/03/12 05:08:18;;;;;;;30.60;18.85;;;;;;;;;;6381211;22;20176;-95
2021/03/12 05:10:52;;;;;;;27.98;17.48;;;;;;;;;;6380229;22;20179;-94
2021/03/12 05:13:18;;;;;;;28.20;17.13;;;;;;;;;;6381761;22;20172;-95
2021/03/12 05:15:44;;;;;;;37.17;22.75;;;;;;;;;;6379694;22;20176;-95
2021/03/12 05:18:10;;;;;;;35.38;22.20;;;;;;;;;;6379955;22;20198;-96
2021/03/12 05:20:38;;;;;;;34.30;23.47;;;;;;;;;;6378926;22;20235;-94
2021/03/12 05:23:04;;;;;;;34.03;21.63;;;;;;;;;;6380809;22;20503;-95
2021/03/12 05:25:30;;;;;;;41.40;24.98;;;;;;;;;;6379484;22;20179;-94
2021/03/12 05:27:56;;;;;;;40.63;23.80;;;;;;;;;;6381026;22;20195;-96
2021/03/12 05:30:23;;;;;;;36.00;22.17;;;;;;;;;;6382565;22;20176;-93
2021/03/12 05:32:49;;;;;;;39.67;24.75;;;;;;;;;;6385558;22;20421;-95
2021/03/12 05:35:15;;;;;;;36.60;22.83;;;;;;;;;;6381271;22;20176;-95
2021/03/12 05:37:42;;;;;;;30.53;20.23;;;;;;;;;;6379595;22;20399;-95
2021/03/12 05:40:08;;;;;;;36.03;22.10;;;;;;;;;;6380501;22;20410;-93
2021/03/12 05:42:35;;;;;;;36.67;23.70;;;;;;;;;;6379436;22;20206;-94
2021/03/12 05:45:01;;;;;;;32.13;21.70;;;;;;;;;;6381226;22;20179;-94
2021/03/12 05:47:27;;;;;;;30.38;21.13;;;;;;;;;;6379418;22;20168;-94
2021/03/12 05:49:53;;;;;;;42.35;29.45;;;;;;;;;;6381084;22;20172;-94
2021/03/12 05:52:19;;;;;;;47.67;31.58;;;;;;;;;;6379520;22;20176;-94
2021/03/12 05:54:46;;;;;;;48.83;31.70;;;;;;;;;;6380712;22;20178;-93
2021/03/12 05:57:12;;;;;;;51.22;33.60;;;;;;;;;;6378721;22;20409;-93
2021/03/12 05:59:38;;;;;;;55.78;32.00;;;;;;;;;;6380420;22;20488;-91
2021/03/12 06:02:04;;;;;;;55.97;32.20;;;;;;;;;;6380134;22;20179;-93
2021/03/12 06:04:30;;;;;;;45.75;31.15;;;;;;;;;;6381781;22;20242;-92
2021/03/12 06:06:56;;;;;;;49.73;29.77;;;;;;;;;;6380642;22;20172;-94
2021/03/12 06:09:22;;;;;;;39.35;25.30;;;;;;;;;;6381443;22;20417;-93
2021/03/12 06:11:52;;;;;;;39.55;24.92;;;;;;;;;;6379956;22;20181;-94
2021/03/12 06:14:18;;;;;;;38.10;24.30;;;;;;;;;;6378776;22;20172;-93
2021/03/12 06:16:48;;;;;;;36.78;21.77;;;;;;;;;;6379224;22;20177;-92
2021/03/12 06:19:15;;;;;;;28.55;18.77;;;;;;;;;;6377412;22;20178;-93
2021/03/12 06:21:41;;;;;;;22.25;14.60;;;;;;;;;;6379623;22;20176;-92
2021/03/12 06:24:23;;;;;;;22.23;14.60;;;;;;;;;;6377536;22;20208;-92
2021/03/12 06:26:50;;;;;;;19.33;14.80;;;;;;;;;;6380833;22;20185;-92
2021/03/12 06:29:17;;;;;;;18.77;12.80;;;;;;;;;;6378805;22;20177;-91
2021/03/12 06:31:49;;;;;;;16.73;13.07;;;;;;;;;;6379225;22;20285;-91
2021/03/12 06:34:15;;;;;;;20.08;14.02;;;;;;;;;;6377082;22;20182;-91
2021/03/12 06:36:41;;;;;;;17.70;12.70;;;;;;;;;;6379965;22;20206;-92
2021/03/12 06:39:07;;;;;;;16.40;12.97;;;;;;;;;;6380645;22;20683;-90
2021/03/12 06:41:37;;;;;;;16.20;11.43;;;;;;;;;;6379750;22;20516;-91
2021/03/12 06:44:17;;;;;;;17.13;10.73;;;;;;;;;;6378447;22;20446;-91
2021/03/12 06:46:45;;;;;;;13.30;10.85;;;;;;;;;;6379839;22;20176;-90
2021/03/12 06:49:11;;;;;;;14.40;11.00;;;;;;;;;;6376871;22;20679;-91
2021/03/12 06:51:50;;;;;;;14.37;11.40;;;;;;;;;;6382187;22;20184;-90
2021/03/12 06:54:16;;;;;;;17.80;11.95;;;;;;;;;;6381907;22;20412;-91
2021/03/12 06:56:42;;;;;;;14.77;11.00;;;;;;;;;;6381232;22;20174;-91
2021/03/12 06:59:08;;;;;;;45.37;30.73;;;;;;;;;;6379483;22;20511;-89
2021/03/12 07:01:34;;;;;;;53.60;32.53;;;;;;;;;;6380790;22;20438;-89
2021/03/12 07:04:10;;;;;;;58.60;36.60;;;;;;;;;;6380681;22;20205;-90
2021/03/12 07:06:43;;;;;;;51.15;34.80;;;;;;;;;;6381422;22;20400;-90
2021/03/12 07:09:09;;;;;;;47.85;31.80;;;;;;;;;;6382108;22;20174;-88
2021/03/12 07:11:35;;;;;;;54.10;35.17;;;;;;;;;;6379857;22;20974;-90
2021/03/12 07:14:01;;;;;;;58.97;37.42;;;;;;;;;;6380769;22;20399;-90
2021/03/12 07:16:27;;;;;;;91.17;69.73;;;;;;;;;;6380462;22;20181;-93
2021/03/12 07:18:54;;;;;;;109.47;70.80;;;;;;;;;;6383569;22;20437;-92
2021/03/12 07:21:22;;;;;;;81.32;62.08;;;;;;;;;;6380054;22;20183;-93
2021/03/12 07:23:48;;;;;;;78.00;53.35;;;;;;;;;;6381259;22;20196;-93
2021/03/12 07:26:15;;;;;;;70.18;51.20;;;;;;;;;;6379600;22;20205;-93
2021/03/12 07:28:41;;;;;;;90.38;57.10;;;;;;;;;;6381708;22;20177;-93
2021/03/12 07:31:09;;;;;;;62.20;52.50;;;;;;;;;;6380030;22;20176;-93
2021/03/12 07:33:36;;;;;;;64.70;47.97;;;;;;;;;;6380056;22;20404;-92
2021/03/12 07:36:04;;;;;;;47.60;39.77;;;;;;;;;;6379964;22;20410;-92
2021/03/12 07:38:32;;;;;;;29.60;26.50;;;;;;;;;;6381820;22;20431;-92
2021/03/12 07:40:58;;;;;;;23.47;19.63;;;;;;;;;;6379726;22;20430;-92
2021/03/12 07:43:25;;;;;;;18.50;15.20;;;;;;;;;;6380797;22;20453;-92
2021/03/12 07:45:51;;;;;;;15.83;14.10;;;;;;;;;;6380214;22;20486;-93
2021/03/12 07:48:17;;;;;;;10.60;9.50;;;;;;;;;;6381108;22;20417;-91
2021/03/12 07:50:43;;;;;;;10.27;9.20;;;;;;;;;;6380418;22;20402;-91
2021/03/12 07:53:09;;;;;;;10.07;9.00;;;;;;;;;;6378507;22;20421;-92
2021/03/12 07:55:59;;;;;;;12.50;10.07;;;;;;;;;;6380781;22;20432;-92
2021/03/12 07:58:43;;;;;;;10.57;9.50;;;;;;;;;;6380745;22;20414;-91
2021/03/12 08:01:10;;;;;;;10.70;8.67;;;;;;;;;;6381320;22;20402;-91
2021/03/12 08:03:40;;;;;;;11.20;8.30;;;;;;;;;;6375654;22;20590;-91
2021/03/12 08:06:27;;;;;;;10.83;9.00;;;;;;;;;;6377707;22;20413;-92
2021/03/12 08:08:53;;;;;;;9.93;7.77;;;;;;;;;;6380470;22;20402;-91
2021/03/12 08:11:21;;;;;;;9.00;8.10;;;;;;;;;;6381953;22;20405;-92
2021/03/12 08:13:47;;;;;;;9.40;8.07;;;;;;;;;;6381225;22;20394;-91
2021/03/12 08:16:14;;;;;;;8.70;7.80;;;;;;;;;;6381193;22;20422;-91
2021/03/12 08:18:40;;;;;;;12.70;8.83;;;;;;;;;;6379364;22;20402;-92
2021/03/12 08:21:27;;;;;;;11.43;8.27;;;;;;;;;;6380427;22;20411;-92
2021/03/12 08:23:53;;;;;;;12.30;7.67;;;;;;;;;;6379141;22;20934;-92
2021/03/12 08:26:33;;;;;;;13.40;9.37;;;;;;;;;;6381373;22;20410;-93
2021/03/12 08:29:28;;;;;;;11.90;9.70;;;;;;;;;;6380570;22;20407;-93
2021/03/12 08:31:55;;;;;;;9.97;8.47;;;;;;;;;;6380971;22;20414;-92
2021/03/12 08:34:41;;;;;;;9.03;8.10;;;;;;;;;;6378622;22;20417;-93
2021/03/12 08:37:33;;;;;;;8.83;7.93;;;;;;;;;;6373200;22;20387;-96
2021/03/12 08:40:14;;;;;;;8.47;7.67;;;;;;;;;;6379220;22;20877;-92
2021/03/12 08:43:02;;;;;;;8.10;7.30;;;;;;;;;;6387513;22;20402;-95
2021/03/12 08:45:32;;;;;;;7.57;6.87;;;;;;;;;;6376672;22;20411;-94
2021/03/12 08:48:04;;;;;;;7.23;6.43;;;;;;;;;;6387129;22;20718;-95
2021/03/12 08:50:30;;;;;;;7.60;6.80;;;;;;;;;;6386915;22;20402;-95
2021/03/12 08:52:56;;;;;;;6.97;6.27;;;;;;;;;;6386531;22;20417;-95
2021/03/12 08:55:23;;;;;;;7.27;6.50;;;;;;;;;;6381963;22;20428;-94
2021/03/12 08:57:49;;;;;;;8.37;6.73;;;;;;;;;;6385432;22;20410;-94
2021/03/12 09:00:15;;;;;;;7.00;6.30;;;;;;;;;;6380787;22;20402;-92
2021/03/12 09:02:41;;;;;;;7.73;7.00;;;;;;;;;;6383515;22;20415;-95
2021/03/12 09:05:23;;;;;;;7.67;6.87;;;;;;;;;;6387979;22;20410;-95
2021/03/12 09:07:54;;;;;;;7.30;6.60;;;;;;;;;;6383526;22;20421;-96
2021/03/12 09:10:31;;;;;;;7.33;6.47;;;;;;;;;;6384702;22;20640;-96
2021/03/12 09:12:58;;;;;;;7.40;6.70;;;;;;;;;;6387890;22;20406;-95
2021/03/12 09:15:25;;;;;;;6.80;6.10;;;;;;;;;;6384060;22;20411;-96
2021/03/12 09:17:55;;;;;;;9.60;6.90;;;;;;;;;;6382509;22;20436;-95
2021/03/12 09:20:25;;;;;;;7.83;6.70;;;;;;;;;;6381472;22;20415;-96
2021/03/12 09:22:52;;;;;;;7.40;6.07;;;;;;;;;;6386190;22;20404;-93
2021/03/12 09:25:29;;;;;;;6.70;6.07;;;;;;;;;;6383111;22;20435;-91
2021/03/12 09:27:59;;;;;;;8.80;6.23;;;;;;;;;;6382600;22;20409;-93
2021/03/12 09:30:25;;;;;;;7.40;6.70;;;;;;;;;;6380907;22;20410;-92
2021/03/12 09:32:51;;;;;;;7.13;6.43;;;;;;;;;;6381828;22;20425;-93
2021/03/12 09:35:18;;;;;;;6.40;5.80;;;;;;;;;;6380518;22;20598;-91
2021/03/12 09:37:44;;;;;;;7.00;6.40;;;;;;;;;;6381278;22;20413;-94
2021/03/12 09:40:27;;;;;;;8.73;6.70;;;;;;;;;;6381364;22;20409;-94
2021/03/12 09:42:54;;;;;;;7.77;6.97;;;;;;;;;;6387052;22;20428;-95
2021/03/12 09:45:21;;;;;;;6.80;6.10;;;;;;;;;;6384216;22;20391;-94
2021/03/12 09:47:48;;;;;;;6.40;5.80;;;;;;;;;;6380866;22;20416;-93
2021/03/12 09:50:14;;;;;;;7.13;6.43;;;;;;;;;;6380688;22;20402;-93
2021/03/12 09:52:40;;;;;;;7.10;6.10;;;;;;;;;;6378494;22;20421;-94
2021/03/12 09:55:07;;;;;;;7.20;6.50;;;;;;;;;;6380295;22;20408;-94
2021/03/12 09:57:37;;;;;;;7.17;6.47;;;;;;;;;;6381759;22;20406;-96
2021/03/12 10:00:06;;;;;;;7.13;6.53;;;;;;;;;;6385932;22;20513;-95
2021/03/12 10:02:32;;;;;;;7.10;6.10;;;;;;;;;;6377193;22;20412;-95
2021/03/12 10:04:59;;;;;;;7.10;6.40;;;;;;;;;;6379707;22;20445;-94
2021/03/12 10:07:35;;;;;;;6.50;5.90;;;;;;;;;;6378513;22;20401;-93
2021/03/12 10:10:10;;;;;;;7.03;6.43;;;;;;;;;;6381351;22;20797;-94
2021/03/12 10:12:39;;;;;;;6.50;5.93;;;;;;;;;;6379658;22;20402;-93
2021/03/12 10:15:11;;;;;;;7.30;6.60;;;;;;;;;;6381053;22;20410;-93
2021/03/12 10:17:37;;;;;;;7.70;6.03;;;;;;;;;;6380430;22;20417;-93
2021/03/12 10:20:04;;;;;;;6.47;5.87;;;;;;;;;;6381990;22;20413;-92
2021/03/12 10:22:31;;;;;;;6.67;6.07;;;;;;;;;;6380551;22;20409;-95
2021/03/12 10:24:59;;;;;;;6.70;6.07;;;;;;;;;;6381278;22;20441;-93
2021/03/12 10:27:25;;;;;;;5.80;5.30;;;;;;;;;;6379606;22;20412;-92
2021/03/12 10:29:52;;;;;;;6.50;5.90;;;;;;;;;;6380688;22;20414;-93
2021/03/12 10:32:19;;;;;;;6.30;5.60;;;;;;;;;;6377384;22;20421;-92
2021/03/12 10:34:45;;;;;;;6.53;5.93;;;;;;;;;;6378681;22;20409;-94
2021/03/12 10:37:12;;;;;;;5.73;5.17;;;;;;;;;;6380380;22;20406;-93
2021/03/12 10:39:43;;;;;;;5.90;5.30;;;;;;;;;;6378840;22;20407;-96
2021/03/12 10:42:10;;;;;;;5.70;5.20;;;;;;;;;;6378749;22;20488;-94
2021/03/12 10:44:53;;;;;;;5.97;5.47;;;;;;;;;;6378323;22;20454;-94
2021/03/12 10:47:20;;;;;;;5.90;5.30;;;;;;;;;;6380017;22;20422;-93
2021/03/12 10:49:46;;;;;;;5.27;4.77;;;;;;;;;;6378441;22;20398;-92
2021/03/12 10:52:20;;;;;;;5.93;5.43;;;;;;;;;;6378658;22;20459;-93
2021/03/12 10:54:46;;;;;;;6.03;5.47;;;;;;;;;;6376729;22;20406;-92
2021/03/12 10:57:12;;;;;;;5.43;4.93;;;;;;;;;;6378518;22;20497;-93
2021/03/12 10:59:38;;;;;;;5.80;5.20;;;;;;;;;;6378103;22;20406;-93
2021/03/12 11:02:12;;;;;;;6.83;6.20;;;;;;;;;;6381045;22;20451;-93
2021/03/12 11:04:39;;;;;;;6.30;5.40;;;;;;;;;;6379557;22;20449;-96
2021/03/12 11:07:05;;;;;;;6.27;5.67;;;;;;;;;;6379690;22;20406;-94
2021/03/12 11:09:31;;;;;;;6.40;5.80;;;;;;;;;;6377200;22;20409;-93
2021/03/12 11:11:57;;;;;;;5.57;5.07;;;;;;;;;;6379772;22;20406;-95
2021/03/12 11:14:23;;;;;;;6.37;5.73;;;;;;;;;;6378005;22;20416;-94
2021/03/12 11:16:49;;;;;;;6.47;5.87;;;;;;;;;;6379720;22;20418;-94
2021/03/12 11:19:15;;;;;;;5.97;5.37;;;;;;;;;;6378686;22;20409;-93
2021/03/12 11:21:43;;;;;;;5.40;5.00;;;;;;;;;;6382445;22;21075;-94
2021/03/12 11:24:09;;;;;;;5.77;5.20;;;;;;;;;;6382378;22;20949;-94
2021/03/12 11:26:38;;;;;;;6.10;5.43;;;;;;;;;;6382782;22;20428;-94
2021/03/12 11:29:04;;;;;;;5.07;4.57;;;;;;;;;;6386888;22;20410;-95
2021/03/12 11:31:30;;;;;;;5.40;4.90;;;;;;;;;;6383691;22;20501;-94
2021/03/12 11:33:56;;;;;;;5.37;4.90;;;;;;;;;;6382148;22;20429;-94
2021/03/12 11:36:22;;;;;;;5.20;4.70;;;;;;;;;;6380337;22;20509;-95
2021/03/12 11:38:49;;;;;;;4.90;4.57;;;;;;;;;;6380546;22;20399;-93
2021/03/12 11:41:15;;;;;;;5.63;5.17;;;;;;;;;;6379835;22;20434;-93
2021/03/12 11:43:41;;;;;;;5.80;5.30;;;;;;;;;;6381135;22;20437;-94
2021/03/12 11:46:07;;;;;;;5.80;5.33;;;;;;;;;;6379528;22;20448;-94
2021/03/12 11:48:33;;;;;;;5.30;4.80;;;;;;;;;;6380514;22;20403;-95
2021/03/12 11:51:06;;;;;;;5.53;5.03;;;;;;;;;;6383410;22;20463;-95
2021/03/12 11:53:33;;;;;;;5.40;4.90;;;;;;;;;;6381784;22;20417;-94
2021/03/12 11:56:00;;;;;;;5.57;5.07;;;;;;;;;;6380410;22;20402;-94
2021/03/12 11:58:26;;;;;;;5.63;5.10;;;;;;;;;;6382566;22;20394;-94
2021/03/12 12:00:52;;;;;;;5.13;4.73;;;;;;;;;;6380624;22;20406;-93
2021/03/12 12:03:18;;;;;;;5.83;4.80;;;;;;;;;;6381845;22;21164;-95
2021/03/12 12:05:45;;;;;;;5.37;4.87;;;;;;;;;;6384532;22;20399;-94
2021/03/12 12:08:11;;;;;;;5.20;4.73;;;;;;;;;;6381314;22;20884;-94
2021/03/12 12:10:37;;;;;;;5.37;4.53;;;;;;;;;;6381921;22;20410;-94
2021/03/12 12:13:04;;;;;;;5.27;4.80;;;;;;;;;;6381169;22;20407;-92
2021/03/12 12:15:31;;;;;;;4.97;4.53;;;;;;;;;;6382600;22;20403;-95
2021/03/12 12:18:00;;;;;;;4.73;4.33;;;;;;;;;;6380037;22;20410;-91
2021/03/12 12:20:27;;;;;;;4.40;4.10;;;;;;;;;;6381476;22;20406;-91
2021/03/12 12:22:53;;;;;;;4.80;4.40;;;;;;;;;;6379971;22;20418;-92
2021/03/12 12:25:19;;;;;;;5.40;4.90;;;;;;;;;;6381195;22;20501;-92
2021/03/12 12:27:45;;;;;;;5.40;4.53;;;;;;;;;;6379201;22;20432;-93
2021/03/12 12:30:13;;;;;;;5.40;4.80;;;;;;;;;;6380477;22;20410;-93
2021/03/12 12:32:39;;;;;;;5.50;5.07;;;;;;;;;;6379440;22;20901;-92
2021/03/12 12:35:07;;;;;;;4.80;4.40;;;;;;;;;;6380858;22;20482;-93
2021/03/12 12:37:33;;;;;;;5.20;4.70;;;;;;;;;;6377456;22;20476;-93
2021/03/12 12:39:59;;;;;;;6.17;4.87;;;;;;;;;;6380503;22;20402;-94
2021/03/12 12:42:25;;;;;;;4.90;4.50;;;;;;;;;;6379418;22;20461;-94
2021/03/12 12:44:51;;;;;;;6.03;4.40;;;;;;;;;;6380406;22;20455;-93
2021/03/12 12:47:18;;;;;;;5.70;5.23;;;;;;;;;;6380830;22;20754;-93
2021/03/12 12:49:44;;;;;;;5.27;4.87;;;;;;;;;;6379780;22;20411;-93
2021/03/12 12:52:10;;;;;;;4.93;4.40;;;;;;;;;;6381582;22;20417;-93
2021/03/12 12:54:36;;;;;;;5.70;5.10;;;;;;;;;;6379589;22;20411;-93
2021/03/12 12:57:02;;;;;;;5.10;4.70;;;;;;;;;;6380412;22;20456;-92
2021/03/12 12:59:28;;;;;;;8.47;5.10;;;;;;;;;;6379084;22;20410;-92
2021/03/12 13:01:54;;;;;;;5.70;5.20;;;;;;;;;;6380682;22;20991;-93
2021/03/12 13:04:21;;;;;;;5.97;4.93;;;;;;;;;;6380137;22;20446;-92
2021/03/12 13:06:47;;;;;;;4.87;4.47;;;;;;;;;;6380592;22;20410;-92
2021/03/12 13:09:13;;;;;;;5.67;5.17;;;;;;;;;;6378992;22;20416;-93
2021/03/12 13:11:39;;;;;;;5.80;5.23;;;;;;;;;;6382172;22;20451;-93
2021/03/12 13:14:05;;;;;;;5.07;4.67;;;;;;;;;;6379768;22;20402;-93
2021/03/12 13:16:31;;;;;;;5.80;5.30;;;;;;;;;;6381247;22;20407;-93
2021/03/12 13:18:58;;;;;;;5.90;4.97;;;;;;;;;;6379338;22;20417;-92
2021/03/12 13:21:25;;;;;;;5.60;5.10;;;;;;;;;;6380826;22;20418;-93
2021/03/12 13:23:51;;;;;;;5.23;4.80;;;;;;;;;;6380317;22;20450;-92
2021/03/12 13:26:18;;;;;;;5.83;4.77;;;;;;;;;;6380983;22;20429;-92
2021/03/12 13:28:44;;;;;;;5.23;4.80;;;;;;;;;;6381415;22;20410;-91
2021/03/12 13:31:11;;;;;;;5.27;4.77;;;;;;;;;;6378398;22;20547;-92
2021/03/12 13:33:37;;;;;;;5.60;5.10;;;;;;;;;;6378670;22;20410;-93
2021/03/12 13:36:03;;;;;;;5.80;5.10;;;;;;;;;;6377667;22;20446;-93
2021/03/12 13:38:30;;;;;;;5.37;4.87;;;;;;;;;;6380249;22;20406;-92
2021/03/12 13:40:57;;;;;;;4.90;4.53;;;;;;;;;;6379783;22;20439;-91
2021/03/12 13:43:25;;;;;;;4.87;4.37;;;;;;;;;;6380982;22;20496;-91
2021/03/12 13:45:52;;;;;;;7.00;5.10;;;;;;;;;;6379316;22;20404;-92
2021/03/12 13:48:18;;;;;;;5.50;5.10;;;;;;;;;;6379721;22;20407;-92
2021/03/12 13:50:44;;;;;;;6.27;5.67;;;;;;;;;;6379006;22;20405;-92
2021/03/12 13:53:10;;;;;;;6.50;5.90;;;;;;;;;;6381500;22;20411;-92
2021/03/12 13:55:37;;;;;;;6.53;5.97;;;;;;;;;;6379895;22;20408;-92
2021/03/12 13:58:07;;;;;;;6.00;5.40;;;;;;;;;;6380190;22;20414;-96
2021/03/12 14:00:33;;;;;;;5.47;5.03;;;;;;;;;;6379128;22;20410;-93
2021/03/12 14:02:59;;;;;;;9.17;5.33;;;;;;;;;;6378101;22;20403;-93
2021/03/12 14:05:25;;;;;;;5.50;5.00;;;;;;;;;;6377718;22;20457;-93
2021/03/12 14:07:51;;;;;;;5.73;5.17;;;;;;;;;;6376947;22;20559;-93
2021/03/12 14:10:17;;;;;;;5.90;5.40;;;;;;;;;;6378031;22;20469;-92
2021/03/12 14:12:44;;;;;;;5.90;5.40;;;;;;;;;;6379959;22;20403;-92
2021/03/12 14:15:11;;;;;;;8.93;6.70;;;;;;;;;;6380727;22;20413;-93
2021/03/12 14:17:37;;;;;;;6.20;5.60;;;;;;;;;;6378724;22;20428;-92
2021/03/12 14:20:03;;;;;;;9.67;6.63;;;;;;;;;;6378789;22;20407;-93
2021/03/12 14:22:29;;;;;;;6.57;5.97;;;;;;;;;;6377696;22;20415;-93
2021/03/12 14:24:55;;;;;;;6.60;5.90;;;;;;;;;;6379744;22;20535;-93
2021/03/12 14:27:21;;;;;;;7.17;5.60;;;;;;;;;;6378240;22;20485;-92
2021/03/12 14:29:48;;;;;;;11.10;7.27;;;;;;;;;;6380859;22;20413;-92
2021/03/12 14:32:14;;;;;;;6.80;6.30;;;;;;;;;;6378030;22;20409;-91